CheckWX is a tool to help pilots better visualize weather data.  It is not intended as a substitute for an official pre-flight weather briefing.

04:43:44 UTC

KVIS TAF
Visalia Municipal Airport
Visalia, California, USA
KVIS 222320Z 2300/2324 VRB04KT P6SM BKN120 FM231200 11005KT P6SM BKN050 OVC100 PROB30 2315/2318 -RA BKN030 OVC050 FM232200 32009KT P6SM BKN100

Mar-23@
00:00 UTC

Mar-23 @ 00:00 UTC

Mar-23@
12:00 UTC

Mar-23 @ 12:00 UTC

KVIS 222320Z 2300/2324 VRB04KT P6SM BKN120
Wind
  • Variable at 4 KTS
Cloud Levels
  • Broken at 12,000' AGL

Mar-23@
12:00 UTC

Mar-23 @ 12:00 UTC

Mar-23@
22:00 UTC

Mar-23 @ 22:00 UTC

FM231200 11005KT P6SM BKN050 OVC100

From

From Standard forecast or significant change

Wind
  • 110° at 5 KTS
Cloud Levels
  • Broken at 5,000' AGL
  • Overcast at 10,000' AGL

Mar-23@
15:00 UTC

Mar-23 @ 15:00 UTC

Mar-23@
18:00 UTC

Mar-23 @ 18:00 UTC

PROB30 2315/2318 -RA BKN030 OVC050

Probable - 30% Likelihood

Probable - 30% Likelihood during this time.

Conditions
Light Rain
Cloud Levels
  • Broken at 3,000' AGL
  • Overcast at 5,000' AGL

Mar-23@
22:00 UTC

Mar-23 @ 22:00 UTC

Mar-24@
00:00 UTC

Mar-24 @ 00:00 UTC

FM232200 32009KT P6SM BKN100

From

From Standard forecast or significant change

Wind
  • 320° at 9 KTS
Cloud Levels
  • Broken at 10,000' AGL